Time;durP1;ratioP1;P1;durP2;ratioP2;P2;SDS_P1;SDS_P2;PMS_P1;PMS_P2;Temp;Humidity;BMP_temperature;BMP_pressure;BME280_temperature;BME280_humidity;BME280_pressure;Samples;Min_cycle;Max_cycle;Signal;HPM_P1;HPM_P2
2022/10/22 00:01:03;;;;;;;8.75;6.28;;;11.10;90.40;;;;;;5074683;28;20078;-65
2022/10/22 00:03:28;;;;;;;12.48;6.72;;;11.20;90.50;;;;;;5075247;28;20060;-66
2022/10/22 00:05:54;;;;;;;16.83;6.60;;;11.20;90.40;;;;;;5074977;28;20464;-65
2022/10/22 00:08:20;;;;;;;10.63;6.32;;;11.10;90.80;;;;;;5075046;28;20025;-65
2022/10/22 00:10:45;;;;;;;9.95;6.00;;;11.10;90.60;;;;;;5074442;28;20034;-65
2022/10/22 00:13:13;;;;;;;14.88;6.90;;;11.10;90.70;;;;;;5074850;28;20441;-65
2022/10/22 00:15:38;;;;;;;12.40;6.38;;;11.10;90.70;;;;;;5075006;28;20020;-65
2022/10/22 00:18:04;;;;;;;8.93;6.28;;;11.10;90.80;;;;;;5073846;28;20207;-64
2022/10/22 00:20:29;;;;;;;10.85;6.72;;;11.00;90.70;;;;;;5074731;28;20396;-65
2022/10/22 00:22:55;;;;;;;13.35;6.70;;;11.00;90.80;;;;;;5074054;28;20032;-66
2022/10/22 00:25:21;;;;;;;12.05;6.78;;;11.00;90.90;;;;;;5074635;28;20029;-66
2022/10/22 00:27:46;;;;;;;17.75;6.50;;;11.00;91.00;;;;;;5073947;28;20056;-66
2022/10/22 00:30:12;;;;;;;15.27;6.30;;;11.00;91.10;;;;;;5074324;28;20055;-65
2022/10/22 00:32:38;;;;;;;12.93;6.10;;;11.00;91.00;;;;;;5074272;28;20034;-65
2022/10/22 00:35:04;;;;;;;9.00;6.03;;;11.00;91.00;;;;;;5073520;28;20021;-65
2022/10/22 00:37:30;;;;;;;10.45;6.32;;;11.00;91.00;;;;;;5074193;28;20035;-65
2022/10/22 00:39:55;;;;;;;12.77;6.88;;;11.00;91.00;;;;;;5073724;28;20368;-66
2022/10/22 00:42:25;;;;;;;10.35;6.35;;;11.00;91.10;;;;;;5073923;28;20045;-65
2022/10/22 00:45:25;;;;;;;11.15;7.25;;;10.90;91.00;;;;;;5073564;28;20481;-65
2022/10/22 00:48:29;;;;;;;9.02;6.03;;;10.90;91.00;;;;;;5030099;28;20050;-66
2022/10/22 00:50:58;;;;;;;16.20;6.95;;;10.90;91.00;;;;;;5073483;28;20029;-66
2022/10/22 00:53:36;;;;;;;12.25;6.90;;;10.90;91.00;;;;;;5073873;28;20036;-65
2022/10/22 00:56:03;;;;;;;12.95;6.65;;;10.90;91.30;;;;;;5073151;28;20048;-66
2022/10/22 00:58:32;;;;;;;10.48;6.28;;;10.90;91.40;;;;;;5073860;28;20101;-65
2022/10/22 01:00:58;;;;;;;11.38;6.43;;;10.80;91.50;;;;;;5073039;28;20024;-65
2022/10/22 01:03:24;;;;;;;12.23;6.80;;;10.80;91.70;;;;;;5074192;28;20037;-64
2022/10/22 01:05:49;;;;;;;11.57;6.05;;;10.80;91.80;;;;;;5073155;28;20435;-64
2022/10/22 01:08:43;;;;;;;13.02;6.32;;;10.80;91.70;;;;;;5073669;28;20025;-64
2022/10/22 01:11:26;;;;;;;13.23;7.05;;;10.80;91.60;;;;;;5072900;28;20024;-65
2022/10/22 01:14:29;;;;;;;10.05;5.90;;;10.80;91.70;;;;;;5073139;28;20032;-65
2022/10/22 01:17:04;;;;;;;10.65;6.93;;;10.80;91.70;;;;;;5030955;28;20599;-65
2022/10/22 01:19:41;;;;;;;12.63;6.50;;;10.80;91.70;;;;;;5073598;28;20053;-65
2022/10/22 01:22:33;;;;;;;10.65;7.00;;;10.80;91.70;;;;;;5073053;28;20032;-65
2022/10/22 01:25:12;;;;;;;10.70;5.90;;;10.80;91.70;;;;;;5072838;28;20024;-64
2022/10/22 01:27:56;;;;;;;13.77;6.03;;;10.80;91.50;;;;;;5073333;28;20028;-65
2022/10/22 01:30:23;;;;;;;12.05;6.03;;;10.80;91.20;;;;;;5072983;28;20037;-64
2022/10/22 01:32:53;;;;;;;11.00;6.30;;;10.80;91.20;;;;;;5072990;28;20029;-67
2022/10/22 01:35:26;;;;;;;11.55;6.68;;;10.80;91.00;;;;;;5073281;28;20457;-65
2022/10/22 01:37:56;;;;;;;13.07;7.00;;;10.80;91.10;;;;;;5072672;28;20106;-66
2022/10/22 01:40:23;;;;;;;13.80;6.60;;;10.80;91.20;;;;;;5072988;28;20033;-64
2022/10/22 01:43:00;;;;;;;11.52;6.57;;;10.70;91.60;;;;;;5072978;28;20037;-65
2022/10/22 01:45:29;;;;;;;11.10;6.03;;;10.70;91.50;;;;;;5073111;28;20472;-65
2022/10/22 01:48:16;;;;;;;10.25;6.47;;;10.70;91.50;;;;;;5085283;28;20028;-65
2022/10/22 01:50:44;;;;;;;10.20;6.40;;;10.70;91.40;;;;;;5093293;28;20039;-64
2022/10/22 01:53:27;;;;;;;12.15;5.90;;;10.70;91.60;;;;;;5092737;28;20130;-65
2022/10/22 01:56:07;;;;;;;12.45;5.88;;;10.70;91.50;;;;;;5076407;28;20120;-67
2022/10/22 01:58:42;;;;;;;12.68;5.95;;;10.60;91.40;;;;;;5072775;28;20024;-65
2022/10/22 02:01:46;;;;;;;11.85;6.25;;;10.60;91.30;;;;;;5072233;28;20036;-66
2022/10/22 02:04:28;;;;;;;10.45;5.93;;;10.60;91.30;;;;;;5072507;28;20143;-65
2022/10/22 02:06:59;;;;;;;9.25;6.05;;;10.60;91.30;;;;;;5072264;28;20078;-68
2022/10/22 02:09:26;;;;;;;12.32;6.47;;;10.60;91.20;;;;;;5072788;28;20028;-65
2022/10/22 02:11:54;;;;;;;10.48;6.85;;;10.60;91.20;;;;;;5072231;28;20032;-65
2022/10/22 02:14:20;;;;;;;12.52;6.30;;;10.60;91.00;;;;;;5072693;28;20020;-65
2022/10/22 02:16:49;;;;;;;9.75;5.70;;;10.60;91.00;;;;;;5054503;28;20405;-65
2022/10/22 02:19:25;;;;;;;11.60;5.85;;;10.50;91.00;;;;;;5072023;28;20116;-65
2022/10/22 02:21:52;;;;;;;12.85;6.35;;;10.60;91.00;;;;;;5072173;28;20508;-64
2022/10/22 02:24:18;;;;;;;8.45;5.50;;;10.50;91.00;;;;;;5072064;28;20047;-65
2022/10/22 02:27:22;;;;;;;10.98;6.15;;;10.60;91.10;;;;;;5072394;28;20027;-65
2022/10/22 02:30:03;;;;;;;12.43;6.43;;;10.60;91.10;;;;;;5042000;28;20396;-64
2022/10/22 02:32:44;;;;;;;9.75;6.22;;;10.60;91.00;;;;;;5072138;28;20466;-65
2022/10/22 02:35:14;;;;;;;9.52;6.40;;;10.60;90.90;;;;;;5071903;28;20029;-65
2022/10/22 02:37:41;;;;;;;10.32;6.60;;;10.60;90.80;;;;;;5072278;28;20021;-65
2022/10/22 02:40:07;;;;;;;9.10;6.00;;;10.60;90.80;;;;;;5071804;28;20032;-66
2022/10/22 02:42:35;;;;;;;11.88;6.75;;;10.50;90.90;;;;;;5072439;28;20033;-64
2022/10/22 02:45:01;;;;;;;10.07;5.78;;;10.50;91.00;;;;;;5071469;28;20366;-66
2022/10/22 02:47:26;;;;;;;9.38;6.20;;;10.50;91.10;;;;;;5072258;28;20032;-66
2022/10/22 02:49:52;;;;;;;10.20;6.05;;;10.50;91.20;;;;;;5072032;28;20035;-66
2022/10/22 02:52:17;;;;;;;10.75;6.43;;;10.50;90.90;;;;;;5071623;28;20272;-65
2022/10/22 02:54:43;;;;;;;10.10;6.45;;;10.50;91.00;;;;;;5071896;28;20485;-65
2022/10/22 02:57:09;;;;;;;10.18;6.88;;;10.50;90.90;;;;;;5071662;28;20052;-64
2022/10/22 02:59:34;;;;;;;8.40;6.10;;;10.40;91.10;;;;;;5074864;28;20037;-64
2022/10/22 03:02:00;;;;;;;10.30;6.60;;;10.40;91.20;;;;;;5075458;28;20025;-65
2022/10/22 03:04:25;;;;;;;17.42;6.28;;;10.40;91.20;;;;;;5058111;28;20112;-65
2022/10/22 03:06:51;;;;;;;8.70;5.97;;;10.40;91.30;;;;;;5076015;28;20028;-66
2022/10/22 03:09:17;;;;;;;11.07;6.82;;;10.40;91.30;;;;;;5075542;28;20780;-65
2022/10/22 03:11:42;;;;;;;9.77;6.32;;;10.40;91.50;;;;;;5076033;28;20047;-64
2022/10/22 03:14:08;;;;;;;9.77;6.22;;;10.40;91.70;;;;;;5075046;28;20032;-64
2022/10/22 03:16:34;;;;;;;9.20;6.72;;;10.30;91.60;;;;;;5075865;28;20031;-65
2022/10/22 03:19:00;;;;;;;11.20;5.95;;;10.40;91.70;;;;;;5075302;28;20465;-66
2022/10/22 03:21:34;;;;;;;9.85;6.40;;;10.40;91.80;;;;;;5075822;28;20028;-65
2022/10/22 03:24:04;;;;;;;12.57;6.63;;;10.30;91.90;;;;;;5075479;28;20035;-67
2022/10/22 03:26:30;;;;;;;9.95;6.10;;;10.30;91.90;;;;;;5075541;28;20447;-65
2022/10/22 03:28:56;;;;;;;10.70;7.03;;;10.30;91.80;;;;;;5075339;28;20038;-64
2022/10/22 03:31:22;;;;;;;9.30;6.57;;;10.30;91.90;;;;;;5074734;28;20033;-65
2022/10/22 03:33:48;;;;;;;13.73;6.25;;;10.30;92.00;;;;;;5075637;28;20021;-65
2022/10/22 03:36:13;;;;;;;12.70;6.63;;;10.30;91.70;;;;;;5074920;28;20081;-65
2022/10/22 03:38:40;;;;;;;13.57;6.35;;;10.30;91.70;;;;;;5075414;28;20433;-66
2022/10/22 03:41:06;;;;;;;12.27;6.43;;;10.40;91.80;;;;;;5074869;28;20472;-66
2022/10/22 03:43:34;;;;;;;13.27;6.22;;;10.30;91.80;;;;;;5075555;28;20073;-65
2022/10/22 03:46:00;;;;;;;11.52;6.70;;;10.30;91.70;;;;;;5075323;28;20029;-65
2022/10/22 03:48:25;;;;;;;10.15;6.50;;;10.30;91.70;;;;;;5074687;28;20031;-64
2022/10/22 03:50:51;;;;;;;9.75;6.47;;;10.30;91.80;;;;;;5074990;28;20028;-64
2022/10/22 03:53:17;;;;;;;12.85;6.78;;;10.30;91.70;;;;;;5056457;28;20437;-65
2022/10/22 03:55:42;;;;;;;13.50;6.43;;;10.30;91.70;;;;;;5075239;28;20044;-65
2022/10/22 03:58:08;;;;;;;12.57;6.22;;;10.20;91.80;;;;;;5090604;28;20101;-64
2022/10/22 04:00:34;;;;;;;8.88;6.50;;;10.20;91.90;;;;;;5095259;28;20480;-64
2022/10/22 04:03:00;;;;;;;16.33;6.50;;;10.20;92.00;;;;;;5094746;28;20484;-64
2022/10/22 04:05:25;;;;;;;10.68;7.00;;;10.20;91.80;;;;;;5078929;28;20114;-64
2022/10/22 04:07:51;;;;;;;13.75;6.60;;;10.20;91.90;;;;;;5075045;28;20095;-65
2022/10/22 04:10:17;;;;;;;10.00;6.50;;;10.20;92.10;;;;;;5073757;28;20116;-65
2022/10/22 04:12:42;;;;;;;9.50;7.03;;;10.20;92.20;;;;;;5074701;28;20035;-66
2022/10/22 04:15:08;;;;;;;9.02;6.47;;;10.10;92.20;;;;;;5074208;28;20059;-66
2022/10/22 04:17:35;;;;;;;9.10;6.93;;;10.10;92.20;;;;;;5074629;28;20030;-65
2022/10/22 04:20:02;;;;;;;12.05;7.60;;;10.10;92.20;;;;;;5074525;28;20033;-65
2022/10/22 04:22:28;;;;;;;9.50;6.95;;;10.10;92.20;;;;;;5074132;28;20116;-64
2022/10/22 04:24:54;;;;;;;9.60;6.50;;;10.10;92.30;;;;;;5074206;28;20107;-64
2022/10/22 04:27:20;;;;;;;13.95;7.15;;;10.10;92.60;;;;;;5074001;28;20033;-65
2022/10/22 04:29:45;;;;;;;10.57;6.70;;;10.00;92.60;;;;;;5074573;28;20025;-65
2022/10/22 04:32:11;;;;;;;12.25;6.45;;;10.00;92.60;;;;;;5073865;28;20036;-64
2022/10/22 04:34:36;;;;;;;12.25;6.80;;;10.00;92.70;;;;;;5074288;28;20028;-65
2022/10/22 04:37:03;;;;;;;13.13;7.57;;;10.00;92.70;;;;;;5074226;28;20086;-65
2022/10/22 04:39:29;;;;;;;12.20;6.65;;;10.00;92.70;;;;;;5073669;28;20077;-64
2022/10/22 04:41:55;;;;;;;12.80;7.53;;;10.00;92.80;;;;;;5074099;28;20465;-65
2022/10/22 04:44:20;;;;;;;10.40;7.43;;;10.00;92.90;;;;;;5073636;28;20052;-66
2022/10/22 04:46:46;;;;;;;13.98;7.22;;;10.00;93.10;;;;;;5074083;28;20060;-64
2022/10/22 04:49:12;;;;;;;10.32;7.00;;;10.00;93.10;;;;;;5073607;28;20096;-66
2022/10/22 04:51:38;;;;;;;11.60;7.55;;;10.00;93.20;;;;;;5073730;28;20036;-66
2022/10/22 04:54:04;;;;;;;10.43;7.15;;;10.00;93.50;;;;;;5073905;28;20377;-65
2022/10/22 04:56:31;;;;;;;9.32;6.70;;;10.00;93.20;;;;;;5073188;28;20150;-65
2022/10/22 04:58:58;;;;;;;10.00;6.82;;;10.00;93.10;;;;;;5073832;28;20028;-65
2022/10/22 05:01:29;;;;;;;9.85;7.05;;;10.00;93.20;;;;;;5073157;28;20035;-65
2022/10/22 05:03:55;;;;;;;;;;;10.10;93.20;;;;;;5074219;28;20024;-65
2022/10/22 05:06:23;;;;;;;10.75;7.25;;;10.10;93.20;;;;;;5073317;28;19904;-65
2022/10/22 05:09:02;;;;;;;11.23;6.82;;;10.10;93.10;;;;;;5073863;28;20051;-65
2022/10/22 05:11:32;;;;;;;11.85;6.80;;;10.10;93.20;;;;;;5073138;28;20040;-65
2022/10/22 05:13:59;;;;;;;10.93;7.10;;;10.10;93.20;;;;;;5073571;28;20027;-65
2022/10/22 05:16:27;;;;;;;12.35;7.35;;;10.10;93.10;;;;;;5055179;28;20368;-65
2022/10/22 05:18:53;;;;;;;10.52;7.15;;;10.20;93.00;;;;;;5073565;28;20043;-65
2022/10/22 05:21:20;;;;;;;14.30;7.43;;;10.20;93.00;;;;;;5072451;28;20032;-65
2022/10/22 05:23:47;;;;;;;11.20;6.75;;;10.20;93.00;;;;;;5073310;28;20066;-65
2022/10/22 05:26:16;;;;;;;11.82;6.90;;;10.20;93.00;;;;;;5072913;28;20064;-66
2022/10/22 05:28:42;;;;;;;10.77;7.05;;;10.20;93.00;;;;;;5073501;28;20103;-64
2022/10/22 05:31:10;;;;;;;12.15;7.68;;;10.20;93.10;;;;;;5073414;28;20056;-65
2022/10/22 05:33:36;;;;;;;11.80;7.15;;;10.20;93.00;;;;;;5072623;28;20028;-64
2022/10/22 05:36:04;;;;;;;11.80;6.95;;;10.30;92.80;;;;;;5073049;28;20024;-64
2022/10/22 05:38:31;;;;;;;11.85;7.47;;;10.20;92.80;;;;;;5072753;28;20110;-65
2022/10/22 05:41:21;;;;;;;12.27;7.13;;;10.20;93.00;;;;;;5073383;28;20029;-65
2022/10/22 05:43:48;;;;;;;13.73;8.10;;;10.30;93.20;;;;;;5060906;28;20086;-65
2022/10/22 05:46:19;;;;;;;11.27;7.60;;;10.20;93.20;;;;;;5072975;28;20025;-65
2022/10/22 05:48:52;;;;;;;10.65;8.00;;;10.30;93.20;;;;;;5073448;28;20025;-65
2022/10/22 05:51:19;;;;;;;12.90;7.20;;;10.30;93.50;;;;;;5072520;28;20032;-65
2022/10/22 05:53:44;;;;;;;11.52;7.65;;;10.30;93.40;;;;;;5072836;28;20028;-64
2022/10/22 05:56:13;;;;;;;12.85;7.75;;;10.30;93.20;;;;;;5072582;28;20052;-64
2022/10/22 05:58:39;;;;;;;14.05;7.45;;;10.30;93.20;;;;;;5072881;28;20031;-65
2022/10/22 06:01:29;;;;;;;14.05;7.97;;;10.30;93.30;;;;;;5072643;28;20376;-64
2022/10/22 06:03:57;;;;;;;9.82;7.13;;;10.30;93.30;;;;;;5072224;28;20073;-65
2022/10/22 06:06:42;;;;;;;16.80;7.60;;;10.40;93.00;;;;;;5072131;28;20109;-64
2022/10/22 06:09:22;;;;;;;13.93;8.30;;;10.40;93.00;;;;;;5092021;28;20031;-65
2022/10/22 06:11:48;;;;;;;13.77;7.90;;;10.40;93.00;;;;;;5092913;28;20036;-65
2022/10/22 06:14:14;;;;;;;13.13;7.70;;;10.50;93.00;;;;;;5090956;28;20126;-66
2022/10/22 06:16:40;;;;;;;11.98;8.25;;;10.50;93.20;;;;;;5053517;28;20027;-64
2022/10/22 06:19:06;;;;;;;11.48;8.10;;;10.50;93.10;;;;;;5072389;28;20457;-65
2022/10/22 06:21:32;;;;;;;13.18;7.50;;;10.60;93.20;;;;;;5071716;28;20094;-65
2022/10/22 06:23:59;;;;;;;12.82;8.00;;;10.60;93.20;;;;;;5072467;28;20078;-64
2022/10/22 06:26:25;;;;;;;11.90;8.15;;;10.60;93.10;;;;;;5071651;28;20024;-65
2022/10/22 06:28:51;;;;;;;13.48;7.88;;;10.60;93.00;;;;;;5072564;28;20111;-64
2022/10/22 06:31:16;;;;;;;12.93;8.90;;;10.70;92.90;;;;;;5071848;28;20028;-67
2022/10/22 06:33:42;;;;;;;11.40;7.40;;;10.80;92.70;;;;;;5071932;28;20035;-65
2022/10/22 06:36:14;;;;;;;11.73;7.60;;;10.90;92.30;;;;;;5072011;28;20024;-65
2022/10/22 06:38:40;;;;;;;14.00;8.18;;;10.90;92.00;;;;;;5071438;28;20029;-66
2022/10/22 06:41:08;;;;;;;17.50;8.07;;;11.00;92.00;;;;;;5072270;28;20044;-65
2022/10/22 06:43:34;;;;;;;10.68;7.60;;;11.10;91.80;;;;;;5071763;28;20028;-65
2022/10/22 06:46:01;;;;;;;20.33;7.55;;;11.20;91.60;;;;;;5054282;28;20082;-66
2022/10/22 06:48:27;;;;;;;11.27;7.60;;;11.30;91.20;;;;;;5071220;28;20107;-66
2022/10/22 06:50:53;;;;;;;12.48;7.43;;;11.30;90.90;;;;;;5071971;28;20526;-65
2022/10/22 06:53:19;;;;;;;11.13;7.45;;;11.30;90.70;;;;;;5071266;28;20060;-68
2022/10/22 06:55:44;;;;;;;16.33;8.25;;;11.50;90.90;;;;;;5071557;28;20087;-66
2022/10/22 06:58:10;;;;;;;15.57;7.60;;;11.50;90.80;;;;;;5072455;28;20031;-65
2022/10/22 07:00:36;;;;;;;14.45;8.13;;;11.60;90.60;;;;;;5071402;28;20466;-65
2022/10/22 07:03:01;;;;;;;16.63;8.50;;;11.60;90.30;;;;;;5072002;28;20064;-65
2022/10/22 07:05:27;;;;;;;13.20;8.32;;;11.60;90.50;;;;;;5071553;28;20496;-65
2022/10/22 07:07:53;;;;;;;18.48;8.75;;;11.60;90.30;;;;;;5071983;28;20024;-65
2022/10/22 07:10:18;;;;;;;13.88;8.68;;;11.70;90.40;;;;;;5071705;28;20056;-67
2022/10/22 07:12:44;;;;;;;14.23;8.90;;;11.70;90.10;;;;;;5071866;28;20119;-65
2022/10/22 07:15:10;;;;;;;16.55;8.32;;;11.70;90.30;;;;;;5071827;28;20021;-68
2022/10/22 07:17:36;;;;;;;13.55;9.07;;;11.70;90.00;;;;;;5071398;28;20074;-65
2022/10/22 07:20:01;;;;;;;13.48;8.13;;;11.70;90.00;;;;;;5053832;28;20107;-65
2022/10/22 07:22:27;;;;;;;14.30;7.88;;;11.70;90.00;;;;;;5070601;28;20052;-66
2022/10/22 07:24:52;;;;;;;14.98;8.32;;;11.70;90.10;;;;;;5071753;28;20028;-65
2022/10/22 07:27:18;;;;;;;11.98;8.50;;;11.60;90.10;;;;;;5071485;28;20472;-66
2022/10/22 07:29:44;;;;;;;12.88;8.20;;;11.60;90.30;;;;;;5070999;28;20021;-65
2022/10/22 07:32:10;;;;;;;18.08;9.00;;;11.60;90.40;;;;;;5071346;28;20119;-65
2022/10/22 07:34:36;;;;;;;12.48;8.57;;;11.60;90.50;;;;;;5070456;28;20035;-65
2022/10/22 07:37:01;;;;;;;13.50;8.30;;;11.60;90.70;;;;;;5071804;28;20036;-66
2022/10/22 07:39:27;;;;;;;15.75;8.15;;;11.60;90.90;;;;;;5070907;28;20048;-67
2022/10/22 07:41:53;;;;;;;14.82;7.90;;;11.60;91.10;;;;;;5071533;28;20039;-66
2022/10/22 07:44:19;;;;;;;11.35;7.97;;;11.60;91.30;;;;;;5054378;28;20067;-66
2022/10/22 07:46:44;;;;;;;12.82;8.00;;;11.60;91.60;;;;;;5074860;28;20083;-66
2022/10/22 07:49:10;;;;;;;14.82;8.45;;;11.60;92.00;;;;;;5075361;28;20048;-66
2022/10/22 07:51:36;;;;;;;13.40;8.18;;;11.60;92.30;;;;;;5074753;28;20492;-66
2022/10/22 07:54:01;;;;;;;12.57;7.75;;;11.70;92.70;;;;;;5075002;28;20052;-66
2022/10/22 07:56:28;;;;;;;13.57;8.32;;;11.70;93.00;;;;;;5074242;28;20048;-65
2022/10/22 07:58:53;;;;;;;13.45;8.68;;;11.70;93.20;;;;;;5057476;28;20468;-66
2022/10/22 08:01:19;;;;;;;18.67;10.15;;;11.70;94.00;;;;;;5075124;28;20056;-67
2022/10/22 08:03:45;;;;;;;12.82;8.75;;;11.70;94.60;;;;;;5074743;28;20052;-66
2022/10/22 08:06:13;;;;;;;14.07;8.90;;;11.70;95.00;;;;;;5075344;28;20027;-66
2022/10/22 08:08:39;;;;;;;14.07;9.07;;;11.70;95.20;;;;;;5074756;28;20024;-66
2022/10/22 08:11:05;;;;;;;14.88;9.73;;;11.70;95.40;;;;;;5075271;28;20411;-66
2022/10/22 08:13:31;;;;;;;16.38;9.73;;;11.70;95.50;;;;;;5074389;28;20119;-66
2022/10/22 08:15:59;;;;;;;15.23;9.75;;;11.80;95.60;;;;;;5079629;28;20487;-66
2022/10/22 08:18:26;;;;;;;14.90;9.27;;;11.80;95.80;;;;;;5094554;28;20024;-67
2022/10/22 08:20:52;;;;;;;16.40;9.85;;;11.70;95.90;;;;;;5094876;28;20527;-66
2022/10/22 08:23:18;;;;;;;14.13;9.52;;;11.80;95.90;;;;;;5087264;28;20028;-66
2022/10/22 08:25:44;;;;;;;15.07;9.13;;;11.90;95.90;;;;;;5074116;28;20024;-66
2022/10/22 08:28:10;;;;;;;14.48;9.35;;;12.00;95.90;;;;;;5074597;28;20107;-67
2022/10/22 08:30:37;;;;;;;16.52;9.43;;;12.00;95.80;;;;;;5055947;28;20202;-67
2022/10/22 08:33:04;;;;;;;17.50;9.82;;;12.10;95.80;;;;;;5074392;28;20354;-66
2022/10/22 08:35:30;;;;;;;16.92;9.50;;;12.10;96.00;;;;;;5073588;28;20052;-67
2022/10/22 08:37:55;;;;;;;15.38;8.95;;;12.20;95.90;;;;;;5074303;28;20098;-66
2022/10/22 08:40:33;;;;;;;12.68;8.88;;;12.20;95.80;;;;;;5074042;28;20603;-67
2022/10/22 08:43:25;;;;;;;17.40;9.60;;;12.20;95.70;;;;;;5073972;28;20483;-66
2022/10/22 08:46:16;;;;;;;15.73;10.25;;;12.30;95.60;;;;;;5073302;28;20129;-66
2022/10/22 08:48:45;;;;;;;14.00;9.57;;;12.40;95.50;;;;;;5073830;28;20029;-66
2022/10/22 08:51:18;;;;;;;20.17;10.32;;;12.40;95.70;;;;;;5073934;28;20025;-67
2022/10/22 08:54:21;;;;;;;14.05;10.40;;;12.40;96.00;;;;;;5073197;28;20041;-66
2022/10/22 08:57:02;;;;;;;18.00;10.77;;;12.50;96.40;;;;;;5073374;28;20166;-67
2022/10/22 08:59:40;;;;;;;17.38;10.68;;;12.60;97.30;;;;;;5073477;28;20454;-66
2022/10/22 09:02:18;;;;;;;20.88;11.73;;;12.60;97.60;;;;;;5073642;28;20388;-66
2022/10/22 09:04:49;;;;;;;14.50;10.02;;;12.60;98.30;;;;;;5073330;28;20039;-66
2022/10/22 09:07:15;;;;;;;13.70;10.35;;;12.60;98.50;;;;;;5073568;28;20358;-66
2022/10/22 09:09:46;;;;;;;20.80;11.05;;;12.60;98.60;;;;;;5073402;28;20039;-66
2022/10/22 09:12:16;;;;;;;;;;;12.60;98.90;;;;;;5074078;28;20052;-66
2022/10/22 09:14:41;;;;;;;17.40;11.00;;;12.60;99.10;;;;;;5073263;28;19904;-66
2022/10/22 09:17:13;;;;;;;17.35;11.65;;;12.60;99.50;;;;;;5073650;28;20051;-66
2022/10/22 09:19:55;;;;;;;18.55;11.57;;;12.70;99.90;;;;;;5073031;28;20032;-66
2022/10/22 09:22:43;;;;;;;19.65;11.43;;;12.70;99.90;;;;;;5073279;28;20028;-66
2022/10/22 09:25:13;;;;;;;18.95;12.35;;;12.70;99.90;;;;;;5053220;28;20029;-65
2022/10/22 09:27:39;;;;;;;18.52;11.30;;;12.70;99.90;;;;;;5052109;28;20024;-66
2022/10/22 09:30:05;;;;;;;19.52;11.73;;;12.70;99.90;;;;;;5052208;28;20418;-67
2022/10/22 09:32:32;;;;;;;20.63;12.80;;;12.70;99.90;;;;;;5052534;28;20087;-66
2022/10/22 09:34:57;;;;;;;19.42;11.63;;;12.80;99.90;;;;;;5053264;28;20025;-66
2022/10/22 09:37:28;;;;;;;17.45;11.50;;;12.80;99.90;;;;;;5053369;28;20476;-66
2022/10/22 09:39:57;;;;;;;18.67;11.75;;;12.80;99.90;;;;;;5053011;28;20350;-66
2022/10/22 09:42:24;;;;;;;17.65;12.07;;;12.80;99.90;;;;;;5053083;28;20037;-66
2022/10/22 09:44:56;;;;;;;18.10;11.25;;;12.90;99.90;;;;;;5052437;28;20409;-66
2022/10/22 09:47:38;;;;;;;16.48;11.43;;;12.90;99.90;;;;;;5052850;28;20032;-66
2022/10/22 09:50:26;;;;;;;23.98;12.98;;;12.90;99.90;;;;;;5035078;28;20385;-65
2022/10/22 09:53:20;;;;;;;20.42;11.57;;;12.90;99.90;;;;;;5025319;28;20045;-66
2022/10/22 09:55:52;;;;;;;21.05;10.77;;;13.00;99.90;;;;;;5052385;28;20052;-65
2022/10/22 09:58:18;;;;;;;19.88;12.57;;;13.00;99.90;;;;;;5059781;28;20322;-65
2022/10/22 10:00:49;;;;;;;15.57;11.07;;;13.00;99.90;;;;;;5072354;28;20032;-66
2022/10/22 10:03:18;;;;;;;17.92;11.75;;;13.00;99.90;;;;;;5072838;28;20514;-66
2022/10/22 10:05:51;;;;;;;20.85;12.95;;;13.00;99.90;;;;;;5072340;28;20032;-66
2022/10/22 10:08:17;;;;;;;19.65;12.52;;;13.10;99.90;;;;;;5054545;28;20423;-65
2022/10/22 10:10:48;;;;;;;21.55;12.85;;;13.10;99.90;;;;;;5072558;28;20029;-65
2022/10/22 10:13:38;;;;;;;16.88;11.60;;;13.10;99.90;;;;;;5073037;28;20036;-66
2022/10/22 10:16:14;;;;;;;21.60;11.98;;;13.20;99.90;;;;;;5072808;28;20074;-66
2022/10/22 10:19:01;;;;;;;17.50;12.07;;;13.20;99.90;;;;;;5072356;28;20025;-67
2022/10/22 10:21:51;;;;;;;17.30;12.65;;;13.30;99.90;;;;;;5073580;28;20032;-66
2022/10/22 10:24:48;;;;;;;19.98;11.77;;;13.30;99.90;;;;;;5072903;28;20055;-66
2022/10/22 10:27:39;;;;;;;17.27;12.00;;;13.40;99.90;;;;;;5034647;28;20029;-67
2022/10/22 10:30:25;;;;;;;18.90;12.50;;;13.40;99.90;;;;;;5052721;28;20036;-66
2022/10/22 10:33:05;;;;;;;18.00;12.65;;;13.40;99.90;;;;;;5051413;28;20048;-66
2022/10/22 10:35:42;;;;;;;16.83;12.13;;;13.50;99.90;;;;;;5052258;28;20025;-67
2022/10/22 10:38:19;;;;;;;20.30;12.85;;;13.50;99.90;;;;;;5052586;28;20032;-66
2022/10/22 10:40:55;;;;;;;21.13;14.52;;;13.60;99.90;;;;;;5052095;28;20028;-67
2022/10/22 10:43:29;;;;;;;20.98;14.52;;;13.60;99.90;;;;;;5054239;28;20025;-67
2022/10/22 10:46:00;;;;;;;18.35;12.95;;;13.50;99.90;;;;;;5051903;28;20377;-66
2022/10/22 10:48:32;;;;;;;;;;;13.50;99.90;;;;;;5052752;28;20106;-66
2022/10/22 10:51:22;;;;;;;20.13;13.00;;;13.50;99.90;;;;;;5052546;28;20276;-65
2022/10/22 10:54:06;;;;;;;21.93;13.03;;;13.50;99.90;;;;;;5051622;28;20496;-67
2022/10/22 10:56:43;;;;;;;20.42;12.68;;;13.50;99.90;;;;;;5051831;28;20048;-67
2022/10/22 10:59:18;;;;;;;23.50;13.25;;;13.50;99.90;;;;;;5052220;28;20028;-66
2022/10/22 11:02:08;;;;;;;22.65;12.95;;;13.50;99.90;;;;;;5052463;28;20029;-66
2022/10/22 11:04:57;;;;;;;24.08;14.52;;;13.50;99.90;;;;;;5052788;28;20096;-67
2022/10/22 11:07:35;;;;;;;21.88;12.05;;;13.60;99.90;;;;;;5015075;28;20392;-66
2022/10/22 11:10:27;;;;;;;19.48;12.35;;;13.60;99.90;;;;;;5052592;28;20037;-67
2022/10/22 11:13:01;;;;;;;22.45;13.18;;;13.70;99.90;;;;;;5043136;28;20045;-65
2022/10/22 11:15:38;;;;;;;20.25;13.23;;;13.70;99.90;;;;;;5052100;28;20028;-67
2022/10/22 11:19:11;;;;;;;23.08;13.13;;;13.70;99.90;;;;;;5052429;28;20029;-67
2022/10/22 11:21:48;;;;;;;16.67;12.07;;;13.80;99.90;;;;;;4953923;28;20582;-65
2022/10/22 11:24:43;;;;;;;23.30;13.50;;;13.80;99.90;;;;;;5071449;28;20065;-68
2022/10/22 11:27:38;;;;;;;18.63;13.02;;;13.80;99.90;;;;;;5036116;28;20044;-66
2022/10/22 11:30:11;;;;;;;23.58;12.93;;;13.90;99.90;;;;;;5075340;28;20028;-66
2022/10/22 11:32:39;;;;;;;21.10;13.88;;;14.00;99.90;;;;;;5075147;28;20484;-67
2022/10/22 11:35:11;;;;;;;21.27;13.73;;;14.10;99.90;;;;;;5075308;28;20120;-65
2022/10/22 11:37:37;;;;;;;;;;;14.20;99.90;;;;;;5075210;28;20021;-65
2022/10/22 11:40:35;;;;;;;23.00;12.38;;;14.20;99.90;;;;;;5075230;28;19911;-66
2022/10/22 11:43:07;;;;;;;20.17;12.68;;;14.30;99.90;;;;;;5075456;28;20037;-67
2022/10/22 11:45:38;;;;;;;22.23;13.57;;;14.30;99.90;;;;;;5075232;28;20453;-66
2022/10/22 11:48:17;;;;;;;17.48;10.93;;;14.40;99.90;;;;;;5075273;28;20067;-67
2022/10/22 11:50:59;;;;;;;18.85;12.27;;;14.40;99.90;;;;;;5074751;28;20020;-66
2022/10/22 11:53:31;;;;;;;12.43;7.07;;;14.50;99.90;;;;;;5075246;28;20045;-66
2022/10/22 11:56:05;;;;;;;7.50;5.28;;;14.60;99.90;;;;;;5074526;28;20049;-66
2022/10/22 11:58:31;;;;;;;6.35;3.65;;;14.70;99.90;;;;;;5075058;28;20502;-66
2022/10/22 12:01:16;;;;;;;4.80;3.40;;;14.80;99.90;;;;;;5073916;28;20099;-67
2022/10/22 12:03:47;;;;;;;2.78;2.47;;;15.00;99.90;;;;;;5073532;28;20469;-66
2022/10/22 12:06:14;;;;;;;4.25;2.00;;;15.10;99.90;;;;;;5074496;28;20028;-67
2022/10/22 12:08:49;;;;;;;3.33;2.42;;;15.20;99.90;;;;;;5074444;28;20045;-67
2022/10/22 12:11:38;;;;;;;3.70;2.42;;;15.30;99.90;;;;;;5074574;28;20036;-66
2022/10/22 12:14:28;;;;;;;4.03;2.40;;;15.40;99.90;;;;;;5074722;28;20102;-66
2022/10/22 12:16:57;;;;;;;3.35;2.25;;;15.50;99.90;;;;;;5073974;28;20048;-67
2022/10/22 12:19:24;;;;;;;4.22;2.30;;;15.60;99.90;;;;;;5074609;28;20032;-66
2022/10/22 12:22:10;;;;;;;2.97;2.33;;;15.60;99.90;;;;;;5074519;28;20077;-66
2022/10/22 12:24:43;;;;;;;4.03;2.03;;;15.70;99.90;;;;;;5075002;28;20077;-67
2022/10/22 12:27:26;;;;;;;3.53;2.22;;;15.80;99.90;;;;;;5074638;28;20116;-66
2022/10/22 12:29:56;;;;;;;3.08;2.15;;;15.80;99.90;;;;;;5073852;28;20025;-67
2022/10/22 12:32:31;;;;;;;3.30;2.05;;;15.90;99.90;;;;;;5075458;28;20040;-67
2022/10/22 12:35:02;;;;;;;2.08;1.85;;;15.90;99.90;;;;;;5091335;28;20541;-65
2022/10/22 12:37:28;;;;;;;2.88;2.13;;;15.90;99.90;;;;;;5094885;28;20104;-66
2022/10/22 12:39:54;;;;;;;3.90;2.20;;;16.00;99.90;;;;;;5094147;28;20024;-67
2022/10/22 12:42:22;;;;;;;5.72;2.17;;;16.00;99.90;;;;;;5094670;28;20469;-67
2022/10/22 12:44:55;;;;;;;3.08;2.30;;;16.00;99.90;;;;;;5094223;28;20063;-67
2022/10/22 12:47:21;;;;;;;4.55;2.42;;;16.10;99.90;;;;;;5094707;28;20016;-66
2022/10/22 12:49:49;;;;;;;3.72;2.30;;;16.10;99.90;;;;;;5094305;28;20047;-67
2022/10/22 12:52:21;;;;;;;2.50;2.28;;;16.10;99.90;;;;;;5094217;28;20039;-67
2022/10/22 12:54:51;;;;;;;2.42;1.70;;;16.10;99.90;;;;;;5094098;28;20039;-67
2022/10/22 12:57:19;;;;;;;3.13;2.00;;;16.10;99.90;;;;;;5094570;28;20048;-68
2022/10/22 12:59:47;;;;;;;3.45;2.30;;;16.10;99.90;;;;;;5093715;28;20384;-66